createdAt,value
2022-10-17T00:00:48.154Z,87.24
2022-10-17T00:03:16.534Z,87.17
2022-10-17T00:05:46.464Z,86.63
2022-10-17T00:08:16.293Z,87.22
2022-10-17T00:10:44.161Z,87.23
2022-10-17T00:13:12.928Z,86.96
2022-10-17T00:15:44.876Z,86.75
2022-10-17T00:18:12.945Z,86.74
2022-10-17T00:20:40.751Z,86.40
2022-10-17T00:23:08.569Z,86.55
2022-10-17T00:25:37.030Z,86.88
2022-10-17T00:28:05.006Z,86.49
2022-10-17T00:30:32.891Z,85.86
2022-10-17T00:33:02.033Z,86.28
2022-10-17T00:35:29.866Z,85.70
2022-10-17T00:37:57.800Z,86.44
2022-10-17T00:40:26.253Z,86.36
2022-10-17T00:42:54.040Z,86.23
2022-10-17T00:45:24.772Z,86.19
2022-10-17T00:47:57.061Z,86.18
2022-10-17T00:50:27.040Z,86.27
2022-10-17T00:52:57.814Z,86.63
2022-10-17T00:55:29.504Z,86.63
2022-10-17T00:57:58.271Z,86.14
2022-10-17T01:00:26.265Z,85.79
2022-10-17T01:02:54.119Z,86.71
2022-10-17T01:05:22.220Z,86.19
2022-10-17T01:07:54.019Z,86.42
2022-10-17T01:13:08.667Z,86.56
2022-10-17T01:15:49.228Z,86.44
2022-10-17T01:18:27.309Z,85.98
2022-10-17T01:21:10.020Z,86.63
2022-10-17T01:24:02.927Z,87.30
2022-10-17T01:26:46.294Z,86.83
2022-10-17T01:29:43.137Z,85.89
2022-10-17T01:32:17.320Z,86.21
2022-10-17T01:34:56.010Z,87.28
2022-10-17T01:37:30.434Z,86.58
2022-10-17T01:40:10.648Z,86.82
2022-10-17T01:42:45.269Z,87.28
2022-10-17T01:45:17.520Z,86.58
2022-10-17T01:47:51.904Z,87.44
2022-10-17T01:50:25.056Z,87.64
2022-10-17T01:52:56.701Z,87.62
2022-10-17T01:55:29.592Z,87.29
2022-10-17T01:58:01.718Z,87.04
2022-10-17T02:00:31.497Z,87.02
2022-10-17T02:03:04.862Z,86.66
2022-10-17T02:05:37.762Z,86.79
2022-10-17T02:08:06.249Z,85.82
2022-10-17T02:10:40.471Z,85.80
2022-10-17T02:13:15.394Z,85.73
2022-10-17T02:16:00.460Z,85.82
2022-10-17T02:18:48.596Z,86.08
2022-10-17T02:21:21.676Z,86.73
2022-10-17T02:23:57.319Z,86.65
2022-10-17T02:26:31.924Z,87.10
2022-10-17T02:29:07.538Z,86.34
2022-10-17T02:31:41.646Z,86.23
2022-10-17T02:34:18.404Z,86.91
2022-10-17T02:36:51.825Z,86.64
2022-10-17T02:39:21.769Z,87.06
2022-10-17T02:41:52.073Z,86.86
2022-10-17T02:44:21.473Z,87.23
2022-10-17T02:46:56.110Z,86.18
2022-10-17T02:49:29.453Z,85.90
2022-10-17T02:52:03.973Z,85.77
2022-10-17T02:54:38.218Z,86.38
2022-10-17T02:57:11.765Z,86.47
2022-10-17T02:59:42.199Z,86.92
2022-10-17T03:02:10.118Z,86.20
2022-10-17T03:04:39.359Z,86.26
2022-10-17T03:07:07.144Z,86.62
2022-10-17T03:09:34.924Z,86.27
2022-10-17T03:12:02.854Z,87.14
2022-10-17T03:14:30.585Z,86.52
2022-10-17T03:16:58.363Z,86.52
2022-10-17T03:19:26.235Z,86.40
2022-10-17T03:21:55.510Z,86.46
2022-10-17T03:24:23.535Z,86.02
2022-10-17T03:26:51.510Z,85.41
2022-10-17T03:29:19.378Z,85.78
2022-10-17T03:31:47.182Z,85.28
2022-10-17T03:34:16.786Z,85.20
2022-10-17T03:36:44.557Z,84.66
2022-10-17T03:39:14.065Z,84.56
2022-10-17T03:41:41.939Z,84.73
2022-10-17T03:44:09.713Z,84.23
2022-10-17T03:46:37.498Z,84.66
2022-10-17T03:49:05.389Z,84.56
2022-10-17T03:51:34.474Z,84.57
2022-10-17T03:54:02.507Z,84.14
2022-10-17T03:56:32.008Z,84.40
2022-10-17T03:58:59.809Z,84.26
2022-10-17T04:01:27.770Z,84.71
2022-10-17T04:03:57.775Z,85.08
2022-10-17T04:06:25.548Z,85.51
2022-10-17T04:08:53.289Z,85.97
2022-10-17T04:11:22.332Z,86.28
2022-10-17T04:13:55.842Z,85.95
2022-10-17T04:16:24.651Z,85.97
2022-10-17T04:18:55.004Z,86.65
2022-10-17T04:21:24.684Z,86.21
2022-10-17T04:23:54.780Z,86.48
2022-10-17T04:26:23.049Z,86.47
2022-10-17T04:28:51.506Z,86.53
2022-10-17T04:31:20.747Z,86.63
2022-10-17T04:33:49.897Z,86.92
2022-10-17T04:36:19.262Z,86.84
2022-10-17T04:38:47.061Z,86.59
2022-10-17T04:41:17.065Z,86.43
2022-10-17T04:43:48.472Z,86.00
2022-10-17T04:46:20.340Z,86.62
2022-10-17T04:48:48.228Z,86.59
2022-10-17T04:51:20.562Z,86.12
2022-10-17T04:53:51.111Z,86.89
2022-10-17T04:56:20.445Z,86.55
2022-10-17T04:58:49.161Z,86.92
2022-10-17T05:01:20.243Z,87.13
2022-10-17T05:03:49.744Z,87.95
2022-10-17T05:06:19.117Z,87.89
2022-10-17T05:08:47.794Z,88.32
2022-10-17T05:11:18.599Z,88.81
2022-10-17T05:13:50.421Z,87.99
2022-10-17T05:16:18.318Z,88.11
2022-10-17T05:18:50.614Z,88.23
2022-10-17T05:21:22.700Z,87.78
2022-10-17T05:23:50.670Z,88.86
2022-10-17T05:26:19.661Z,89.12
2022-10-17T05:28:47.694Z,88.41
2022-10-17T05:31:16.213Z,89.29
2022-10-17T05:33:44.254Z,88.63
2022-10-17T05:36:12.080Z,89.21
2022-10-17T05:38:41.361Z,89.36
2022-10-17T05:41:09.327Z,89.01
2022-10-17T05:43:37.366Z,89.41
2022-10-17T05:46:06.598Z,89.84
2022-10-17T05:48:35.220Z,89.34
2022-10-17T05:51:07.979Z,89.98
2022-10-17T05:53:38.126Z,89.80
2022-10-17T05:56:09.714Z,89.49
2022-10-17T05:58:49.711Z,88.96
2022-10-17T06:01:18.666Z,89.23
2022-10-17T06:03:46.505Z,89.36
2022-10-17T06:06:15.618Z,88.81
2022-10-17T06:08:44.033Z,88.72
2022-10-17T06:11:13.941Z,88.59
2022-10-17T06:13:42.030Z,88.54
2022-10-17T06:16:10.486Z,88.76
2022-10-17T06:18:38.349Z,88.57
2022-10-17T06:21:09.356Z,88.57
2022-10-17T06:23:37.668Z,88.55
2022-10-17T06:26:09.100Z,88.32
2022-10-17T06:28:38.808Z,88.80
2022-10-17T06:31:08.160Z,88.65
2022-10-17T06:33:36.252Z,89.17
2022-10-17T06:36:05.989Z,89.09
2022-10-17T06:38:35.157Z,88.41
2022-10-17T06:41:08.526Z,89.12
2022-10-17T06:43:38.473Z,88.93
2022-10-17T06:46:07.241Z,89.08
2022-10-17T06:48:35.324Z,88.47
2022-10-17T06:51:04.869Z,88.52
2022-10-17T06:53:35.810Z,88.31
2022-10-17T06:56:04.824Z,88.52
2022-10-17T06:58:34.545Z,88.57
2022-10-17T07:01:06.465Z,88.31
2022-10-17T07:03:34.959Z,88.10
2022-10-17T07:06:03.386Z,88.13
2022-10-17T07:08:31.405Z,87.81
2022-10-17T07:11:00.253Z,88.21
2022-10-17T07:13:28.443Z,86.73
2022-10-17T07:16:00.645Z,86.87
2022-10-17T07:18:30.046Z,86.64
2022-10-17T07:20:57.837Z,86.28
2022-10-17T07:23:25.928Z,85.65
2022-10-17T07:25:53.836Z,85.02
2022-10-17T07:28:21.641Z,84.69
2022-10-17T07:30:52.144Z,83.63
2022-10-17T07:33:22.506Z,83.39
2022-10-17T07:35:52.900Z,83.61
2022-10-17T07:38:20.808Z,83.66
2022-10-17T07:40:55.729Z,81.76
2022-10-17T07:43:23.958Z,81.95
2022-10-17T07:45:52.539Z,82.14
2022-10-17T07:48:22.121Z,81.65
2022-10-17T07:50:52.103Z,82.07
2022-10-17T07:53:20.339Z,81.96
2022-10-17T07:55:49.625Z,82.08
2022-10-17T07:58:17.449Z,82.27
2022-10-17T08:00:48.266Z,81.88
2022-10-17T08:03:16.491Z,81.25
2022-10-17T08:05:44.255Z,80.34
2022-10-17T08:08:13.396Z,79.13
2022-10-17T08:10:41.338Z,78.16
2022-10-17T08:13:09.339Z,78.62
2022-10-17T08:15:38.839Z,77.81
2022-10-17T08:18:06.769Z,76.96
2022-10-17T08:20:34.548Z,75.67
2022-10-17T08:23:02.295Z,75.98
2022-10-17T08:25:31.507Z,74.65
2022-10-17T08:27:59.571Z,75.05
2022-10-17T08:30:27.381Z,75.29
2022-10-17T08:32:56.471Z,75.36
2022-10-17T08:35:24.244Z,75.45
2022-10-17T08:37:52.115Z,75.98
2022-10-17T08:40:25.377Z,75.52
2022-10-17T08:43:14.178Z,75.22
2022-10-17T08:45:48.606Z,75.60
2022-10-17T08:48:19.813Z,75.31
2022-10-17T08:50:52.933Z,76.10
2022-10-17T08:53:25.818Z,75.98
2022-10-17T08:55:55.797Z,76.12
2022-10-17T08:58:28.879Z,76.04
2022-10-17T09:01:10.511Z,75.96
2022-10-17T09:03:54.090Z,75.43
2022-10-17T09:06:29.944Z,75.58
2022-10-17T09:09:12.526Z,74.71
2022-10-17T09:12:14.594Z,73.57
2022-10-17T09:14:59.957Z,73.66
2022-10-17T09:17:37.814Z,73.23
2022-10-17T09:20:11.935Z,72.14
2022-10-17T09:22:46.143Z,72.15
2022-10-17T09:25:17.581Z,71.67
2022-10-17T09:27:49.857Z,70.44
2022-10-17T09:30:44.140Z,70.26
2022-10-17T09:33:28.170Z,71.46
2022-10-17T09:36:05.517Z,71.03
2022-10-17T09:38:40.043Z,71.32
2022-10-17T09:41:39.682Z,72.17
2022-10-17T09:44:16.396Z,72.77
2022-10-17T09:46:57.562Z,72.58
2022-10-17T09:49:31.606Z,73.10
2022-10-17T09:51:59.539Z,72.56
2022-10-17T09:54:35.259Z,72.74
2022-10-17T09:57:05.547Z,72.28
2022-10-17T09:59:35.306Z,72.58
2022-10-17T10:02:16.914Z,72.11
2022-10-17T10:05:04.089Z,72.12
2022-10-17T10:07:34.494Z,72.23
2022-10-17T10:10:03.985Z,71.93
2022-10-17T10:12:33.812Z,71.57
2022-10-17T10:15:02.298Z,71.46
2022-10-17T10:17:41.865Z,70.94
2022-10-17T10:20:32.259Z,71.17
2022-10-17T10:23:08.991Z,71.13
2022-10-17T10:25:37.341Z,71.77
2022-10-17T10:28:11.766Z,71.70
2022-10-17T10:30:40.187Z,71.81
2022-10-17T10:33:12.855Z,70.63
2022-10-17T10:35:40.865Z,70.90
2022-10-17T10:38:12.568Z,70.89
2022-10-17T10:40:47.394Z,70.57
2022-10-17T10:43:25.486Z,70.06
2022-10-17T10:45:53.941Z,70.14
2022-10-17T10:48:24.899Z,69.87
2022-10-17T10:50:56.835Z,69.65
2022-10-17T10:53:42.428Z,69.17
2022-10-17T10:56:14.974Z,70.06
2022-10-17T10:58:51.844Z,70.02
2022-10-17T11:01:26.456Z,70.44
2022-10-17T11:04:21.183Z,70.11
2022-10-17T11:06:53.106Z,71.19
2022-10-17T11:09:33.018Z,70.88
2022-10-17T11:12:06.348Z,71.15
2022-10-17T11:14:41.702Z,71.28
2022-10-17T11:17:18.895Z,71.41
2022-10-17T11:19:57.364Z,71.87
2022-10-17T11:22:29.535Z,72.16
2022-10-17T11:25:01.753Z,71.94
2022-10-17T11:27:31.119Z,72.16
2022-10-17T11:29:59.636Z,72.03
2022-10-17T11:32:32.855Z,71.27
2022-10-17T11:35:06.624Z,70.77
2022-10-17T11:37:40.823Z,70.26
2022-10-17T11:40:19.331Z,69.70
2022-10-17T11:42:56.609Z,69.37
2022-10-17T11:45:28.269Z,69.17
2022-10-17T11:48:02.704Z,68.41
2022-10-17T11:53:26.183Z,68.10
2022-10-17T11:55:55.625Z,68.89
2022-10-17T11:58:37.627Z,68.38
2022-10-17T12:01:15.173Z,68.37
2022-10-17T12:03:53.319Z,68.78
2022-10-17T12:06:39.340Z,70.36
2022-10-17T12:09:14.145Z,72.41
2022-10-17T12:11:50.851Z,73.72
2022-10-17T12:14:41.133Z,74.76
2022-10-17T12:17:26.971Z,75.39
2022-10-17T12:19:55.243Z,75.82
2022-10-17T12:22:28.256Z,76.31
2022-10-17T12:24:59.504Z,77.42
2022-10-17T12:27:46.238Z,78.54
2022-10-17T12:30:24.473Z,79.27
2022-10-17T12:33:22.138Z,79.97
2022-10-17T12:35:52.305Z,79.51
2022-10-17T12:38:29.101Z,80.12
2022-10-17T12:41:04.400Z,79.92
2022-10-17T12:43:56.007Z,79.63
2022-10-17T12:46:51.078Z,79.94
2022-10-17T12:49:51.117Z,80.00
2022-10-17T12:52:54.030Z,79.73
2022-10-17T12:55:27.067Z,79.61
2022-10-17T12:58:01.197Z,80.17
2022-10-17T13:00:35.924Z,80.40
2022-10-17T13:03:07.653Z,80.55
2022-10-17T13:05:38.392Z,81.08
2022-10-17T13:08:09.082Z,81.90
2022-10-17T13:10:43.169Z,82.00
2022-10-17T13:13:19.353Z,81.60
2022-10-17T13:15:48.216Z,81.38
2022-10-17T13:18:22.057Z,82.74
2022-10-17T13:20:57.450Z,84.62
2022-10-17T13:23:26.267Z,86.69
2022-10-17T13:26:16.186Z,90.03
2022-10-17T13:28:44.572Z,91.32
2022-10-17T13:31:30.930Z,93.24
2022-10-17T13:34:01.550Z,93.02
2022-10-17T13:36:31.234Z,93.63
2022-10-17T13:39:00.608Z,95.18
2022-10-17T13:41:36.295Z,95.97
2022-10-17T13:44:10.493Z,95.92
2022-10-17T13:46:41.063Z,96.18
2022-10-17T13:49:25.711Z,96.63
2022-10-17T13:51:57.139Z,97.31
2022-10-17T13:54:36.908Z,98.18
2022-10-17T13:57:07.977Z,99.64
2022-10-17T13:59:40.204Z,100.00
2022-10-17T14:02:14.685Z,100.00
2022-10-17T14:05:15.199Z,100.00
2022-10-17T14:08:05.698Z,100.00
2022-10-17T14:10:28.855Z,100.00
2022-10-17T14:12:59.165Z,100.00
2022-10-17T14:15:29.342Z,100.00
2022-10-17T14:17:59.440Z,100.00
2022-10-17T14:23:35.550Z,100.00
2022-10-17T14:26:15.908Z,100.00
2022-10-17T14:28:48.941Z,100.00
2022-10-17T14:31:31.147Z,100.00
2022-10-17T14:33:59.171Z,100.00
2022-10-17T14:36:35.996Z,100.00
2022-10-17T14:39:04.839Z,100.00
2022-10-17T14:41:42.872Z,100.00
2022-10-17T14:44:21.513Z,100.00
2022-10-17T14:46:53.456Z,100.00
2022-10-17T14:49:27.095Z,100.00
2022-10-17T14:52:24.658Z,100.00
2022-10-17T14:54:52.496Z,100.00
2022-10-17T14:57:24.831Z,100.00
2022-10-17T14:59:55.597Z,100.00
2022-10-17T15:02:24.287Z,100.00
2022-10-17T15:04:52.144Z,100.00
2022-10-17T15:07:21.210Z,100.00
2022-10-17T15:09:51.582Z,100.00
2022-10-17T15:12:21.558Z,100.00
2022-10-17T15:14:49.605Z,100.00
2022-10-17T15:17:20.902Z,100.00
2022-10-17T15:19:50.641Z,100.00
2022-10-17T15:22:19.222Z,100.00
2022-10-17T15:24:47.251Z,100.00
2022-10-17T15:27:16.949Z,100.00
2022-10-17T15:29:45.200Z,100.00
2022-10-17T15:32:13.170Z,100.00
2022-10-17T15:34:43.114Z,100.00
2022-10-17T15:37:19.099Z,100.00
2022-10-17T15:39:52.965Z,100.00
2022-10-17T15:42:21.780Z,100.00
2022-10-17T15:44:50.331Z,100.00
2022-10-17T15:47:29.626Z,100.00
2022-10-17T15:49:59.045Z,100.00
2022-10-17T15:52:27.261Z,100.00
2022-10-17T15:54:57.391Z,100.00
2022-10-17T15:57:29.484Z,100.00
2022-10-17T16:00:00.009Z,100.00
2022-10-17T16:02:28.292Z,100.00
2022-10-17T16:04:56.081Z,100.00
2022-10-17T16:07:25.382Z,100.00
2022-10-17T16:09:53.218Z,100.00
2022-10-17T16:12:27.635Z,100.00
2022-10-17T16:14:55.561Z,100.00
2022-10-17T16:17:23.441Z,100.00
2022-10-17T16:19:51.305Z,100.00
2022-10-17T16:22:27.661Z,100.00
2022-10-17T16:24:59.270Z,100.00
2022-10-17T16:27:27.339Z,100.00
2022-10-17T16:29:55.133Z,100.00
2022-10-17T16:32:22.904Z,100.00
2022-10-17T16:34:50.643Z,100.00
2022-10-17T16:37:18.359Z,100.00
2022-10-17T16:39:52.545Z,100.00
2022-10-17T16:42:20.825Z,100.00
2022-10-17T16:44:49.024Z,100.00
2022-10-17T16:47:17.402Z,100.00
2022-10-17T16:49:45.510Z,100.00
2022-10-17T16:52:13.450Z,100.00
2022-10-17T16:54:41.460Z,100.00
2022-10-17T16:57:10.579Z,100.00
2022-10-17T16:59:38.323Z,100.00
2022-10-17T17:02:06.205Z,100.00
2022-10-17T17:04:34.016Z,100.00
2022-10-17T17:07:01.760Z,100.00
2022-10-17T17:09:29.691Z,100.00
2022-10-17T17:11:57.416Z,100.00
2022-10-17T17:14:27.077Z,100.00
2022-10-17T17:16:54.948Z,100.00
2022-10-17T17:19:22.709Z,100.00
2022-10-17T17:21:51.175Z,100.00
2022-10-17T17:24:21.109Z,100.00
2022-10-17T17:26:52.216Z,100.00
2022-10-17T17:29:20.029Z,100.00
2022-10-17T17:31:49.746Z,100.00
2022-10-17T17:34:18.513Z,100.00
2022-10-17T17:36:46.623Z,100.00
2022-10-17T17:39:15.783Z,100.00
2022-10-17T17:41:44.359Z,100.00
2022-10-17T17:44:16.458Z,100.00
2022-10-17T17:46:45.366Z,100.00
2022-10-17T17:49:15.163Z,100.00
2022-10-17T17:51:46.333Z,100.00
2022-10-17T17:54:14.393Z,100.00
2022-10-17T17:56:42.142Z,100.00
2022-10-17T17:59:13.506Z,100.00
2022-10-17T18:01:41.599Z,100.00
2022-10-17T18:04:10.097Z,100.00
2022-10-17T18:06:40.106Z,100.00
2022-10-17T18:09:10.092Z,100.00
2022-10-17T18:11:38.608Z,100.00
2022-10-17T18:14:08.568Z,100.00
2022-10-17T18:16:37.821Z,100.00
2022-10-17T18:19:07.371Z,100.00
2022-10-17T18:21:35.914Z,100.00
2022-10-17T18:24:05.820Z,100.00
2022-10-17T18:26:34.215Z,100.00
2022-10-17T18:29:02.105Z,100.00
2022-10-17T18:31:35.317Z,100.00
2022-10-17T18:34:04.602Z,100.00
2022-10-17T18:36:33.909Z,100.00
2022-10-17T18:39:02.905Z,100.00
2022-10-17T18:41:33.227Z,100.00
2022-10-17T18:44:01.153Z,100.00
2022-10-17T18:46:31.702Z,100.00
2022-10-17T18:48:59.712Z,100.00
2022-10-17T18:51:27.993Z,100.00
2022-10-17T18:53:58.629Z,100.00
2022-10-17T18:56:27.520Z,100.00
2022-10-17T18:58:57.634Z,100.00
2022-10-17T19:01:28.489Z,100.00
2022-10-17T19:03:58.008Z,100.00
2022-10-17T19:06:31.882Z,100.00
2022-10-17T19:09:03.109Z,100.00
2022-10-17T19:11:32.605Z,100.00
2022-10-17T19:14:04.564Z,100.00
2022-10-17T19:16:34.577Z,100.00
2022-10-17T19:19:04.959Z,100.00
2022-10-17T19:21:33.091Z,100.00
2022-10-17T19:24:02.753Z,100.00
2022-10-17T19:26:32.382Z,100.00
2022-10-17T19:29:02.317Z,100.00
2022-10-17T19:31:32.085Z,100.00
2022-10-17T19:34:00.847Z,100.00
2022-10-17T19:36:33.527Z,100.00
2022-10-17T19:39:02.575Z,100.00
2022-10-17T19:41:30.626Z,100.00
2022-10-17T19:43:58.493Z,100.00
2022-10-17T19:46:30.452Z,100.00
2022-10-17T19:48:58.458Z,100.00
2022-10-17T19:51:27.237Z,100.00
2022-10-17T19:53:56.692Z,100.00
2022-10-17T19:56:25.914Z,100.00
2022-10-17T19:58:55.626Z,100.00
2022-10-17T20:01:25.670Z,100.00
2022-10-17T20:03:55.471Z,100.00
2022-10-17T20:06:23.543Z,100.00
2022-10-17T20:08:51.931Z,100.00
2022-10-17T20:11:22.291Z,100.00
2022-10-17T20:13:50.513Z,100.00
2022-10-17T20:16:22.289Z,100.00
2022-10-17T20:18:50.877Z,100.00
2022-10-17T20:21:23.430Z,100.00
2022-10-17T20:23:51.889Z,100.00
2022-10-17T20:26:37.449Z,100.00
2022-10-17T20:29:11.100Z,100.00
2022-10-17T20:31:39.734Z,100.00
2022-10-17T20:34:07.565Z,100.00
2022-10-17T20:36:37.506Z,100.00
2022-10-17T20:39:06.296Z,100.00
2022-10-17T20:41:34.651Z,100.00
2022-10-17T20:44:02.583Z,100.00
2022-10-17T20:46:44.411Z,100.00
2022-10-17T20:49:19.166Z,100.00
2022-10-17T20:51:48.464Z,100.00
2022-10-17T20:54:16.273Z,100.00
2022-10-17T20:56:44.136Z,100.00
2022-10-17T20:59:16.316Z,100.00
2022-10-17T21:01:45.367Z,100.00
2022-10-17T21:07:03.328Z,100.00
2022-10-17T21:09:31.360Z,100.00
2022-10-17T21:11:59.218Z,100.00
2022-10-17T21:14:27.076Z,100.00
2022-10-17T21:16:54.831Z,100.00
2022-10-17T21:19:22.932Z,100.00
2022-10-17T21:21:51.526Z,100.00
2022-10-17T21:24:20.912Z,100.00
2022-10-17T21:26:55.691Z,100.00
2022-10-17T21:29:24.381Z,100.00
2022-10-17T21:31:52.539Z,99.99
2022-10-17T21:34:23.980Z,99.67
2022-10-17T21:36:52.421Z,99.34
2022-10-17T21:39:24.276Z,99.73
2022-10-17T21:41:52.761Z,99.68
2022-10-17T21:44:23.160Z,99.63
2022-10-17T21:46:51.829Z,100.00
2022-10-17T21:49:26.629Z,99.36
2022-10-17T21:51:54.934Z,100.00
2022-10-17T21:54:24.545Z,100.00
2022-10-17T21:56:53.252Z,100.00
2022-10-17T21:59:21.476Z,100.00
2022-10-17T22:01:49.367Z,100.00
2022-10-17T22:04:18.704Z,100.00
2022-10-17T22:06:51.182Z,100.00
2022-10-17T22:09:21.147Z,100.00
2022-10-17T22:11:52.985Z,100.00
2022-10-17T22:14:22.428Z,100.00
2022-10-17T22:16:50.864Z,100.00
2022-10-17T22:19:21.011Z,100.00
2022-10-17T22:21:49.426Z,100.00
2022-10-17T22:26:53.916Z,100.00
2022-10-17T22:29:22.015Z,100.00
2022-10-17T22:31:49.911Z,100.00
2022-10-17T22:34:18.759Z,100.00
2022-10-17T22:36:47.765Z,100.00
2022-10-17T22:39:15.726Z,100.00
2022-10-17T22:41:43.655Z,100.00
2022-10-17T22:44:12.955Z,100.00
2022-10-17T22:46:40.802Z,100.00
2022-10-17T22:49:08.783Z,100.00
2022-10-17T22:51:36.533Z,100.00
2022-10-17T22:54:04.358Z,100.00
2022-10-17T22:56:32.284Z,100.00
2022-10-17T22:59:00.022Z,100.00
2022-10-17T23:01:29.199Z,100.00
2022-10-17T23:03:57.055Z,100.00
2022-10-17T23:06:25.159Z,100.00
2022-10-17T23:08:53.693Z,100.00
2022-10-17T23:11:21.980Z,100.00
2022-10-17T23:13:49.793Z,100.00
2022-10-17T23:16:17.915Z,100.00
2022-10-17T23:18:47.410Z,100.00
2022-10-17T23:21:15.433Z,100.00
2022-10-17T23:23:43.259Z,100.00
2022-10-17T23:26:13.435Z,100.00
2022-10-17T23:28:42.197Z,100.00
2022-10-17T23:31:12.163Z,100.00
2022-10-17T23:33:41.464Z,100.00
2022-10-17T23:36:12.129Z,100.00
2022-10-17T23:38:40.805Z,100.00
2022-10-17T23:41:09.031Z,100.00
2022-10-17T23:43:36.872Z,100.00
2022-10-17T23:46:06.314Z,100.00
2022-10-17T23:48:38.441Z,100.00
2022-10-17T23:51:07.019Z,100.00
2022-10-17T23:53:36.917Z,100.00
2022-10-17T23:56:05.329Z,100.00
2022-10-17T23:58:33.164Z,100.00
